Time;durP1;ratioP1;P1;durP2;ratioP2;P2;SDS_P1;SDS_P2;PMS_P1;PMS_P2;Temp;Humidity;BMP_temperature;BMP_pressure;BME280_temperature;BME280_humidity;BME280_pressure;Samples;Min_cycle;Max_cycle;Signal;HPM_P1;HPM_P2
2023/07/06 00:01:55;;;;;;;4.20;2.80;;;14.80;99.90;;;;;;4969621;28;20023;-50
2023/07/06 00:04:22;;;;;;;7.88;3.30;;;14.80;99.90;;;;;;4990210;28;20109;-50
2023/07/06 00:06:48;;;;;;;3.95;2.72;;;14.80;99.90;;;;;;4972278;28;20026;-51
2023/07/06 00:09:14;;;;;;;5.53;3.20;;;14.80;99.90;;;;;;4989803;28;20475;-49
2023/07/06 00:11:41;;;;;;;5.65;2.78;;;14.80;99.90;;;;;;4990011;28;20379;-48
2023/07/06 00:14:09;;;;;;;6.13;3.60;;;14.80;99.90;;;;;;4971882;28;20274;-51
2023/07/06 00:16:35;;;;;;;3.97;3.30;;;14.80;99.90;;;;;;4989527;28;20125;-51
2023/07/06 00:19:01;;;;;;;5.45;2.95;;;14.80;99.90;;;;;;4989472;28;20590;-49
2023/07/06 00:21:29;;;;;;;7.32;3.22;;;14.80;99.90;;;;;;4989376;28;20049;-51
2023/07/06 00:23:55;;;;;;;8.05;3.38;;;14.80;99.90;;;;;;4989213;28;20034;-50
2023/07/06 00:26:21;;;;;;;9.57;3.70;;;14.80;99.90;;;;;;4989707;28;20387;-51
2023/07/06 00:28:51;;;;;;;9.48;3.78;;;14.80;99.90;;;;;;4989293;28;20530;-51
2023/07/06 00:31:21;;;;;;;5.68;3.38;;;14.80;99.90;;;;;;4989610;28;20374;-49
2023/07/06 00:33:52;;;;;;;6.93;3.58;;;14.80;99.90;;;;;;4980587;28;20495;-50
2023/07/06 00:36:17;;;;;;;4.90;3.20;;;14.90;99.90;;;;;;4989593;28;20380;-49
2023/07/06 00:38:44;;;;;;;4.57;3.15;;;14.90;99.90;;;;;;4989266;28;20058;-52
2023/07/06 00:41:11;;;;;;;8.05;3.40;;;14.90;99.90;;;;;;4989781;28;20022;-49
2023/07/06 00:43:49;;;;;;;5.78;3.30;;;14.90;99.90;;;;;;4989631;28;20376;-51
2023/07/06 00:46:15;;;;;;;4.68;3.05;;;14.90;99.90;;;;;;4989187;28;20031;-50
2023/07/06 00:48:44;;;;;;;6.57;3.47;;;14.90;99.90;;;;;;4971365;28;20080;-48
2023/07/06 00:51:37;;;;;;;3.17;2.85;;;14.90;99.90;;;;;;4971561;28;20241;-50
2023/07/06 00:54:09;;;;;;;7.68;3.47;;;14.90;99.90;;;;;;4989408;28;20717;-52
2023/07/06 00:56:39;;;;;;;7.78;3.30;;;14.80;99.90;;;;;;4971239;28;20034;-50
2023/07/06 00:59:06;;;;;;;6.83;3.30;;;14.80;99.90;;;;;;4971658;28;20109;-50
2023/07/06 01:01:35;;;;;;;5.20;3.00;;;14.70;99.90;;;;;;4971536;28;20037;-51
2023/07/06 01:04:02;;;;;;;6.55;3.40;;;14.70;99.90;;;;;;4988835;28;20030;-52
2023/07/06 01:06:42;;;;;;;3.97;2.95;;;14.70;99.90;;;;;;4988592;28;20132;-51
2023/07/06 01:09:08;;;;;;;4.97;3.20;;;14.60;99.90;;;;;;4971245;28;20040;-51
2023/07/06 01:11:38;;;;;;;6.97;3.40;;;14.60;99.90;;;;;;4989059;28;20109;-51
2023/07/06 01:14:03;;;;;;;5.43;3.08;;;14.50;99.90;;;;;;4989142;28;20467;-51
2023/07/06 01:17:05;;;;;;;5.07;3.35;;;14.50;99.90;;;;;;4988660;28;20049;-51
2023/07/06 01:20:04;;;;;;;4.57;2.97;;;14.50;99.90;;;;;;4971037;28;20058;-52
2023/07/06 01:23:06;;;;;;;4.40;2.78;;;14.50;99.90;;;;;;4988595;28;20030;-51
2023/07/06 01:25:45;;;;;;;4.30;2.75;;;14.40;99.90;;;;;;4988485;28;20026;-51
2023/07/06 01:28:33;;;;;;;3.97;2.85;;;14.40;99.90;;;;;;4988089;28;20022;-51
2023/07/06 01:31:26;;;;;;;5.53;2.88;;;14.30;99.90;;;;;;4969112;28;20026;-51
2023/07/06 01:34:09;;;;;;;4.50;3.25;;;14.30;99.90;;;;;;4971512;28;20042;-51
2023/07/06 01:36:39;;;;;;;3.45;2.72;;;14.20;99.90;;;;;;4988086;28;20026;-52
2023/07/06 01:39:12;;;;;;;4.78;3.42;;;14.20;99.90;;;;;;4987955;28;20045;-50
2023/07/06 01:41:40;;;;;;;4.90;2.85;;;14.20;99.90;;;;;;4988605;28;20029;-50
2023/07/06 01:44:11;;;;;;;5.20;3.33;;;14.20;99.90;;;;;;4988757;28;20019;-52
2023/07/06 01:46:37;;;;;;;6.25;3.50;;;14.20;99.90;;;;;;4987924;28;20063;-51
2023/07/06 01:49:05;;;;;;;2.80;2.47;;;14.20;99.90;;;;;;4987824;28;20439;-52
2023/07/06 01:52:11;;;;;;;4.15;2.90;;;14.20;99.90;;;;;;4988085;28;20049;-51
2023/07/06 01:54:44;;;;;;;6.85;3.63;;;14.10;99.90;;;;;;4948240;28;20447;-50
2023/07/06 01:57:18;;;;;;;3.70;2.75;;;14.10;99.90;;;;;;4987898;28;20070;-49
2023/07/06 01:59:47;;;;;;;4.90;3.80;;;14.10;99.90;;;;;;4970461;28;20035;-51
2023/07/06 02:02:13;;;;;;;4.03;3.20;;;14.00;99.90;;;;;;4987928;28;20030;-51
2023/07/06 02:04:43;;;;;;;4.95;3.28;;;14.00;99.90;;;;;;4970593;28;20110;-52
2023/07/06 02:07:11;;;;;;;5.03;3.60;;;14.00;99.90;;;;;;4988255;28;20034;-52
2023/07/06 02:09:47;;;;;;;4.57;4.13;;;14.00;99.90;;;;;;4987869;28;20867;-52
2023/07/06 02:12:13;;;;;;;5.28;3.72;;;14.00;99.90;;;;;;4970552;28;20080;-51
2023/07/06 02:14:43;;;;;;;6.28;4.20;;;14.00;99.90;;;;;;4970794;28;20049;-52
2023/07/06 02:17:09;;;;;;;6.57;4.13;;;14.00;99.90;;;;;;4987666;28;20492;-53
2023/07/06 02:19:36;;;;;;;6.18;3.47;;;14.00;99.90;;;;;;4987043;28;20041;-52
2023/07/06 02:22:03;;;;;;;5.10;3.25;;;13.90;99.90;;;;;;4987999;28;20105;-52
2023/07/06 02:24:29;;;;;;;4.80;3.42;;;13.90;99.90;;;;;;4987826;28;20500;-52
2023/07/06 02:26:55;;;;;;;4.85;3.42;;;14.00;99.90;;;;;;4970197;28;20026;-49
2023/07/06 02:29:22;;;;;;;5.80;3.20;;;14.00;99.90;;;;;;4986983;28;20034;-49
2023/07/06 02:31:48;;;;;;;4.28;3.67;;;14.00;99.90;;;;;;4987790;28;20023;-51
2023/07/06 02:34:14;;;;;;;4.03;3.63;;;14.00;99.90;;;;;;4988162;28;20439;-48
2023/07/06 02:36:40;;;;;;;9.70;4.13;;;14.00;99.90;;;;;;4987512;28;20033;-51
2023/07/06 02:39:06;;;;;;;4.40;3.33;;;14.00;99.90;;;;;;4987475;28;20031;-51
2023/07/06 02:41:31;;;;;;;6.97;4.20;;;14.00;99.90;;;;;;4987679;28;20113;-52
2023/07/06 02:43:57;;;;;;;4.15;3.30;;;14.10;99.90;;;;;;4987470;28;20062;-50
2023/07/06 02:46:23;;;;;;;7.53;3.78;;;14.10;99.90;;;;;;4970114;28;20273;-52
2023/07/06 02:48:50;;;;;;;4.30;3.33;;;14.10;99.90;;;;;;4969583;28;20031;-52
2023/07/06 02:51:16;;;;;;;6.13;3.78;;;14.10;99.90;;;;;;4969704;28;20488;-52
2023/07/06 02:53:41;;;;;;;6.53;3.75;;;14.10;99.90;;;;;;4961302;28;20054;-51
2023/07/06 02:56:08;;;;;;;5.70;3.78;;;14.10;99.90;;;;;;4987302;28;20062;-52
2023/07/06 02:58:34;;;;;;;4.97;3.30;;;14.10;99.90;;;;;;4969567;28;20026;-52
2023/07/06 03:01:00;;;;;;;4.43;3.88;;;14.10;99.90;;;;;;4986634;28;20046;-52
2023/07/06 03:03:26;;;;;;;4.78;3.78;;;14.20;99.90;;;;;;4986789;28;20022;-52
2023/07/06 03:05:52;;;;;;;5.88;4.05;;;14.20;99.90;;;;;;4986816;28;20421;-52
2023/07/06 03:08:17;;;;;;;5.72;4.03;;;14.20;99.90;;;;;;4986548;28;20407;-51
2023/07/06 03:10:46;;;;;;;8.77;4.18;;;14.20;99.90;;;;;;4997624;28;20019;-50
2023/07/06 03:13:15;;;;;;;4.65;3.90;;;14.20;99.90;;;;;;4987313;28;20023;-51
2023/07/06 03:15:41;;;;;;;6.22;3.78;;;14.30;99.90;;;;;;4969550;28;20119;-49
2023/07/06 03:18:08;;;;;;;10.80;4.90;;;14.30;99.90;;;;;;4986737;28;20076;-48
2023/07/06 03:20:37;;;;;;;6.03;4.15;;;14.30;99.90;;;;;;4987138;28;20030;-50
2023/07/06 03:23:03;;;;;;;6.78;3.40;;;14.30;99.90;;;;;;4986891;28;20027;-51
2023/07/06 03:25:29;;;;;;;5.25;3.65;;;14.40;99.90;;;;;;4986925;28;20119;-49
2023/07/06 03:27:56;;;;;;;4.90;3.60;;;14.40;99.90;;;;;;4986648;28;20029;-51
2023/07/06 03:30:27;;;;;;;4.20;3.67;;;14.40;99.90;;;;;;4986843;28;20026;-50
2023/07/06 03:32:54;;;;;;;6.60;3.75;;;14.40;99.90;;;;;;4986403;28;20054;-51
2023/07/06 03:35:22;;;;;;;5.18;4.18;;;14.40;99.90;;;;;;4987461;28;20034;-51
2023/07/06 03:37:48;;;;;;;6.40;3.75;;;14.40;99.90;;;;;;4988045;28;20590;-51
2023/07/06 03:40:14;;;;;;;6.38;4.18;;;14.30;99.90;;;;;;4990243;28;20588;-51
2023/07/06 03:42:45;;;;;;;8.40;4.35;;;14.30;99.90;;;;;;4990116;28;20487;-49
2023/07/06 03:45:12;;;;;;;8.32;4.20;;;14.30;99.90;;;;;;4990234;28;20034;-50
2023/07/06 03:47:38;;;;;;;9.00;4.60;;;14.30;99.90;;;;;;4989851;28;20572;-51
2023/07/06 03:50:08;;;;;;;6.78;4.30;;;14.30;99.90;;;;;;4990026;28;20015;-52
2023/07/06 03:52:36;;;;;;;7.57;4.13;;;14.20;99.90;;;;;;4989579;28;20079;-51
2023/07/06 03:55:03;;;;;;;6.78;4.55;;;14.30;99.90;;;;;;4990132;28;20072;-52
2023/07/06 03:57:30;;;;;;;6.47;4.63;;;14.30;99.90;;;;;;4989481;28;20030;-52
2023/07/06 03:59:56;;;;;;;6.25;4.35;;;14.30;99.90;;;;;;4986909;28;20058;-51
2023/07/06 04:02:22;;;;;;;8.70;4.63;;;14.30;99.90;;;;;;4989358;28;20034;-53
2023/07/06 04:04:48;;;;;;;6.88;4.70;;;14.30;99.90;;;;;;4985558;28;20028;-53
2023/07/06 04:07:13;;;;;;;5.20;4.30;;;14.30;99.90;;;;;;4971795;28;20033;-52
2023/07/06 04:09:39;;;;;;;7.03;4.60;;;14.30;99.90;;;;;;4978812;28;20030;-53
2023/07/06 04:12:07;;;;;;;5.28;4.45;;;14.30;99.90;;;;;;4980835;28;20068;-51
2023/07/06 04:14:34;;;;;;;4.25;3.75;;;14.30;99.90;;;;;;4983610;28;20026;-52
2023/07/06 04:16:59;;;;;;;6.00;4.50;;;14.30;99.90;;;;;;4978908;28;20019;-53
2023/07/06 04:19:25;;;;;;;7.63;5.15;;;14.30;99.90;;;;;;4977249;28;20039;-52
2023/07/06 04:21:56;;;;;;;10.43;5.70;;;14.30;99.90;;;;;;4970103;28;20027;-52
2023/07/06 04:24:21;;;;;;;;;;;14.30;99.90;;;;;;4981842;28;20030;-49
2023/07/06 04:26:47;;;;;;;11.77;5.70;;;14.40;99.90;;;;;;4989482;28;19906;-52
2023/07/06 04:29:12;;;;;;;9.52;5.03;;;14.40;99.90;;;;;;4989402;28;20113;-52
2023/07/06 04:31:39;;;;;;;7.43;5.35;;;14.40;99.90;;;;;;4989604;28;20030;-52
2023/07/06 04:34:05;;;;;;;6.57;5.20;;;14.40;99.90;;;;;;4989447;28;20030;-52
2023/07/06 04:36:33;;;;;;;11.38;5.88;;;14.50;99.90;;;;;;4989087;28;20057;-51
2023/07/06 04:38:59;;;;;;;8.40;5.60;;;14.50;99.90;;;;;;4988526;28;20030;-52
2023/07/06 04:41:26;;;;;;;13.20;5.40;;;14.50;99.90;;;;;;4988665;28;20391;-52
2023/07/06 04:43:52;;;;;;;7.72;5.50;;;14.50;99.90;;;;;;4988784;28;20067;-51
2023/07/06 04:46:18;;;;;;;9.38;6.22;;;14.50;99.90;;;;;;4988984;28;20500;-49
2023/07/06 04:48:44;;;;;;;9.65;5.55;;;14.60;99.90;;;;;;4988107;28;20054;-52
2023/07/06 04:51:11;;;;;;;8.07;6.40;;;14.60;99.90;;;;;;4989031;28;20061;-50
2023/07/06 04:53:37;;;;;;;10.52;6.43;;;14.60;99.90;;;;;;4989121;28;20030;-52
2023/07/06 04:56:04;;;;;;;10.68;5.95;;;14.70;99.90;;;;;;4988974;28;20490;-51
2023/07/06 04:58:30;;;;;;;8.15;5.97;;;14.70;99.90;;;;;;4970979;28;20509;-52
2023/07/06 05:00:56;;;;;;;7.75;6.03;;;14.70;99.90;;;;;;4979301;28;20054;-51
2023/07/06 05:03:23;;;;;;;8.70;6.20;;;14.70;99.90;;;;;;4984126;28;20458;-52
2023/07/06 05:05:48;;;;;;;9.60;7.47;;;14.80;99.90;;;;;;4978634;28;20068;-52
2023/07/06 05:08:16;;;;;;;13.70;8.88;;;14.80;99.90;;;;;;4988571;28;20031;-52
2023/07/06 05:10:50;;;;;;;10.43;7.70;;;14.80;99.90;;;;;;4989241;28;20422;-52
2023/07/06 05:13:16;;;;;;;14.13;9.27;;;14.90;99.90;;;;;;4971458;28;20072;-52
2023/07/06 05:15:42;;;;;;;14.27;8.75;;;14.90;99.90;;;;;;4970967;28;20027;-52
2023/07/06 05:18:07;;;;;;;10.13;8.65;;;14.90;99.90;;;;;;4988180;28;20048;-52
2023/07/06 05:20:33;;;;;;;11.38;8.60;;;14.90;99.90;;;;;;4988717;28;20026;-53
2023/07/06 05:22:59;;;;;;;13.65;7.93;;;15.00;99.90;;;;;;4988790;28;20079;-52
2023/07/06 05:25:26;;;;;;;13.95;9.38;;;15.10;99.90;;;;;;4988591;28;20034;-52
2023/07/06 05:27:52;;;;;;;14.00;9.13;;;15.10;99.90;;;;;;4987711;28;20050;-52
2023/07/06 05:30:17;;;;;;;15.10;9.57;;;15.10;99.90;;;;;;4988537;28;20104;-52
2023/07/06 05:32:43;;;;;;;16.05;9.70;;;15.10;99.90;;;;;;4988413;28;20127;-51
2023/07/06 05:35:09;;;;;;;9.05;7.95;;;15.10;99.90;;;;;;4988485;28;20065;-53
2023/07/06 05:37:36;;;;;;;11.88;9.35;;;15.20;99.90;;;;;;4970235;28;20526;-52
2023/07/06 05:40:04;;;;;;;16.33;10.68;;;15.20;99.90;;;;;;4988022;28;20038;-52
2023/07/06 05:42:30;;;;;;;11.32;7.70;;;15.30;99.90;;;;;;4988353;28;20037;-53
2023/07/06 05:44:56;;;;;;;14.13;9.52;;;15.30;99.90;;;;;;4988354;28;20029;-52
2023/07/06 05:47:21;;;;;;;12.57;8.80;;;15.30;99.90;;;;;;4988138;28;20034;-52
2023/07/06 05:49:47;;;;;;;12.75;8.38;;;15.30;99.90;;;;;;4988032;28;20399;-52
2023/07/06 05:52:13;;;;;;;12.77;8.52;;;15.40;99.90;;;;;;4988172;28;20143;-52
2023/07/06 05:54:39;;;;;;;13.20;8.48;;;15.40;99.90;;;;;;4988691;28;20026;-52
2023/07/06 05:57:06;;;;;;;16.95;8.63;;;15.40;99.90;;;;;;4970425;28;20104;-53
2023/07/06 05:59:32;;;;;;;13.45;8.68;;;15.50;99.90;;;;;;4987238;28;20091;-54
2023/07/06 06:01:59;;;;;;;13.05;8.18;;;15.50;99.90;;;;;;4983225;28;20030;-54
2023/07/06 06:04:25;;;;;;;10.77;7.82;;;15.60;99.90;;;;;;5089825;28;20027;-54
2023/07/06 06:06:54;;;;;;;13.85;8.45;;;15.60;99.90;;;;;;5089735;28;20019;-54
2023/07/06 06:09:21;;;;;;;13.57;7.65;;;15.60;99.90;;;;;;5000104;28;20480;-54
2023/07/06 06:11:48;;;;;;;9.80;7.03;;;15.70;99.90;;;;;;4974401;28;20019;-54
2023/07/06 06:14:14;;;;;;;12.55;7.07;;;15.70;99.90;;;;;;4968041;28;20026;-54
2023/07/06 06:16:40;;;;;;;12.32;7.65;;;15.70;99.90;;;;;;4967747;28;20492;-54
2023/07/06 06:19:06;;;;;;;10.25;7.30;;;15.80;99.90;;;;;;4977881;28;20113;-55
2023/07/06 06:21:33;;;;;;;8.90;6.90;;;15.90;99.90;;;;;;4985857;28;20378;-54
2023/07/06 06:24:02;;;;;;;9.13;5.93;;;15.90;99.90;;;;;;4985728;28;20088;-54
2023/07/06 06:26:32;;;;;;;7.57;5.93;;;15.90;99.90;;;;;;4983639;28;20018;-54
2023/07/06 06:28:57;;;;;;;11.35;6.45;;;16.00;99.90;;;;;;4985767;28;20023;-54
2023/07/06 06:31:24;;;;;;;6.85;5.47;;;16.10;99.90;;;;;;4986056;28;20041;-54
2023/07/06 06:33:50;;;;;;;6.28;4.70;;;16.20;99.90;;;;;;4987618;28;20106;-54
2023/07/06 06:36:17;;;;;;;6.78;5.65;;;16.30;99.90;;;;;;4987339;28;20018;-54
2023/07/06 06:38:43;;;;;;;10.50;5.63;;;16.30;99.90;;;;;;4986755;28;20068;-54
2023/07/06 06:41:10;;;;;;;8.77;5.30;;;16.50;99.90;;;;;;4983334;28;20066;-54
2023/07/06 06:43:39;;;;;;;7.22;4.97;;;16.50;99.90;;;;;;4987161;28;20115;-54
2023/07/06 06:46:08;;;;;;;7.97;4.93;;;16.60;99.90;;;;;;4981363;28;20121;-54
2023/07/06 06:48:35;;;;;;;6.97;4.68;;;16.70;99.90;;;;;;4976836;28;20490;-54
2023/07/06 06:51:02;;;;;;;6.78;5.00;;;16.80;99.90;;;;;;4979474;28;20073;-54
2023/07/06 06:53:28;;;;;;;10.30;4.65;;;16.80;99.90;;;;;;4973184;28;20031;-54
2023/07/06 06:55:55;;;;;;;9.65;5.00;;;16.90;99.90;;;;;;4977497;28;20037;-54
2023/07/06 06:58:21;;;;;;;7.10;4.53;;;17.00;99.90;;;;;;4986839;28;20501;-54
2023/07/06 07:01:07;;;;;;;7.90;4.53;;;17.00;99.90;;;;;;4991468;28;20030;-54
2023/07/06 07:03:34;;;;;;;5.63;4.15;;;17.20;99.90;;;;;;4968229;28;20164;-54
2023/07/06 07:06:11;;;;;;;7.90;4.43;;;17.40;99.90;;;;;;4968290;28;20058;-54
2023/07/06 07:08:45;;;;;;;5.82;4.35;;;17.40;99.90;;;;;;4968001;28;20117;-54
2023/07/06 07:11:12;;;;;;;6.13;3.95;;;17.40;99.90;;;;;;4979229;28;20044;-54
2023/07/06 07:13:40;;;;;;;7.38;4.15;;;17.50;99.90;;;;;;4990902;28;20060;-54
2023/07/06 07:16:07;;;;;;;9.70;4.45;;;17.60;99.90;;;;;;4990764;28;20032;-54
2023/07/06 07:18:33;;;;;;;6.57;4.10;;;17.70;99.90;;;;;;4990367;28;20630;-53
2023/07/06 07:21:01;;;;;;;6.10;3.78;;;17.70;99.90;;;;;;4956789;28;20034;-54
2023/07/06 07:23:42;;;;;;;9.77;4.22;;;17.80;99.90;;;;;;4990496;28;20071;-53
2023/07/06 07:26:13;;;;;;;7.30;3.97;;;17.80;99.90;;;;;;4973050;28;20097;-54
2023/07/06 07:28:40;;;;;;;7.88;3.58;;;17.80;99.90;;;;;;4989863;28;20105;-54
2023/07/06 07:31:11;;;;;;;5.53;3.20;;;17.80;99.90;;;;;;4972902;28;20038;-53
2023/07/06 07:33:38;;;;;;;6.78;3.60;;;17.90;99.90;;;;;;4990334;28;20043;-53
2023/07/06 07:36:04;;;;;;;5.22;3.53;;;18.00;99.90;;;;;;4990639;28;20105;-54
2023/07/06 07:38:30;;;;;;;4.97;2.92;;;18.10;99.90;;;;;;4989964;28;20041;-53
2023/07/06 07:41:00;;;;;;;5.13;3.38;;;18.20;99.90;;;;;;4972850;28;20026;-53
2023/07/06 07:43:33;;;;;;;7.78;3.63;;;18.20;99.90;;;;;;4989891;28;20581;-53
2023/07/06 07:46:03;;;;;;;6.07;3.05;;;18.30;99.90;;;;;;4990235;28;20061;-54
2023/07/06 07:48:30;;;;;;;5.15;3.30;;;18.40;99.90;;;;;;4982967;28;20027;-53
2023/07/06 07:50:56;;;;;;;3.80;3.40;;;18.60;99.90;;;;;;4979617;28;20018;-53
2023/07/06 07:53:24;;;;;;;5.55;2.97;;;18.60;99.90;;;;;;4987501;28;20027;-53
2023/07/06 07:55:50;;;;;;;6.78;2.78;;;18.60;99.90;;;;;;4986805;28;20027;-52
2023/07/06 07:58:16;;;;;;;5.53;3.20;;;18.80;99.90;;;;;;4984399;28;20027;-53
2023/07/06 08:00:50;;;;;;;5.57;2.80;;;19.00;99.90;;;;;;4990345;28;20044;-53
2023/07/06 08:03:16;;;;;;;5.70;2.75;;;19.10;99.90;;;;;;4989458;28;20031;-53
2023/07/06 08:05:42;;;;;;;2.90;2.42;;;19.20;98.10;;;;;;4987823;28;20200;-53
2023/07/06 08:08:10;;;;;;;4.85;2.90;;;19.40;98.50;;;;;;4978416;28;20033;-54
2023/07/06 08:10:38;;;;;;;8.10;3.15;;;19.50;97.50;;;;;;4987083;28;20029;-54
2023/07/06 08:13:05;;;;;;;6.95;2.70;;;19.50;97.70;;;;;;4972235;28;20030;-54
2023/07/06 08:15:31;;;;;;;7.97;2.35;;;19.90;97.60;;;;;;4989686;28;20273;-54
2023/07/06 08:18:00;;;;;;;9.32;2.30;;;20.20;97.60;;;;;;4989673;28;20494;-54
2023/07/06 08:20:28;;;;;;;4.20;2.20;;;20.70;95.90;;;;;;4989814;28;20026;-54
2023/07/06 08:22:57;;;;;;;4.50;2.38;;;21.80;94.90;;;;;;4988988;28;20113;-52
2023/07/06 08:25:25;;;;;;;6.78;2.72;;;23.10;92.40;;;;;;4971968;28;20037;-52
2023/07/06 08:27:51;;;;;;;3.40;2.20;;;23.60;91.00;;;;;;4989097;28;20542;-52
2023/07/06 08:30:17;;;;;;;4.13;2.25;;;24.60;87.90;;;;;;4989626;28;20533;-52
2023/07/06 08:32:42;;;;;;;5.47;1.90;;;25.10;84.90;;;;;;4989070;28;20054;-52
2023/07/06 08:35:08;;;;;;;2.60;1.70;;;25.30;82.80;;;;;;4981134;28;20547;-52
2023/07/06 08:37:34;;;;;;;7.20;2.20;;;25.50;81.00;;;;;;4979848;28;20061;-52
2023/07/06 08:39:59;;;;;;;4.75;1.88;;;25.90;81.20;;;;;;4979537;28;20066;-52
2023/07/06 08:42:25;;;;;;;2.92;1.73;;;26.80;79.20;;;;;;4978585;28;20032;-52
2023/07/06 08:44:55;;;;;;;5.25;1.83;;;26.80;76.80;;;;;;4983700;28;20027;-52
2023/07/06 08:47:25;;;;;;;2.58;1.52;;;26.90;72.70;;;;;;4988787;28;20025;-53
2023/07/06 08:49:51;;;;;;;4.07;1.73;;;26.80;72.20;;;;;;4986468;28;20090;-53
2023/07/06 08:52:19;;;;;;;5.35;1.92;;;27.70;70.50;;;;;;4988995;28;20031;-53
2023/07/06 08:54:49;;;;;;;4.78;1.90;;;27.90;68.40;;;;;;4977573;28;20393;-53
2023/07/06 08:57:20;;;;;;;2.30;1.60;;;28.00;68.40;;;;;;4978751;28;20065;-53
2023/07/06 08:59:48;;;;;;;4.45;1.73;;;27.70;68.70;;;;;;4978667;28;20072;-53
2023/07/06 09:02:24;;;;;;;4.72;1.60;;;27.00;68.50;;;;;;4961707;28;20380;-53
2023/07/06 09:04:52;;;;;;;4.07;1.83;;;26.20;69.30;;;;;;4984905;28;20035;-53
2023/07/06 09:07:22;;;;;;;5.93;1.60;;;27.10;70.40;;;;;;4979371;28;20075;-53
2023/07/06 09:09:49;;;;;;;4.32;1.75;;;27.50;68.70;;;;;;4985800;28;20021;-53
2023/07/06 09:12:36;;;;;;;5.75;1.40;;;27.90;68.20;;;;;;4988714;28;20019;-53
2023/07/06 09:15:03;;;;;;;5.47;1.52;;;28.60;65.00;;;;;;4987689;28;20307;-53
2023/07/06 09:17:29;;;;;;;3.15;1.30;;;29.40;65.00;;;;;;4994942;28;20441;-53
2023/07/06 09:19:55;;;;;;;4.18;1.75;;;30.10;65.10;;;;;;4988285;28;20152;-53
2023/07/06 09:22:22;;;;;;;4.90;1.60;;;30.20;62.90;;;;;;4988602;28;20105;-53
2023/07/06 09:24:49;;;;;;;3.42;1.67;;;30.30;61.40;;;;;;4988795;28;20030;-53
2023/07/06 09:27:19;;;;;;;5.03;1.63;;;30.30;61.60;;;;;;4988292;28;20050;-53
2023/07/06 09:29:55;;;;;;;2.58;1.65;;;29.30;61.60;;;;;;4988686;28;20476;-53
2023/07/06 09:32:21;;;;;;;5.25;1.70;;;28.70;64.70;;;;;;4988626;28;20120;-53
2023/07/06 09:34:55;;;;;;;2.08;1.40;;;29.00;63.60;;;;;;4987451;28;20306;-53
2023/07/06 09:37:21;;;;;;;3.60;1.80;;;29.50;63.30;;;;;;4988055;28;20030;-53
2023/07/06 09:40:05;;;;;;;6.10;1.67;;;30.20;61.70;;;;;;4988264;28;20019;-53
2023/07/06 09:42:33;;;;;;;2.28;1.52;;;30.40;59.30;;;;;;4988401;28;20052;-53
2023/07/06 09:45:00;;;;;;;4.85;1.42;;;29.20;61.10;;;;;;4988477;28;20061;-53
2023/07/06 09:47:27;;;;;;;5.38;2.15;;;28.50;63.50;;;;;;4988087;28;20130;-53
2023/07/06 09:49:56;;;;;;;4.75;1.90;;;28.40;63.70;;;;;;4970479;28;20464;-53
2023/07/06 09:52:22;;;;;;;3.88;1.67;;;29.30;63.10;;;;;;4988282;28;20420;-53
2023/07/06 09:55:02;;;;;;;3.58;1.75;;;29.80;60.70;;;;;;4988380;28;20098;-53
2023/07/06 09:57:33;;;;;;;3.22;1.92;;;30.10;59.50;;;;;;4988041;28;20097;-53
2023/07/06 10:00:00;;;;;;;2.75;1.55;;;29.90;60.00;;;;;;4988116;28;20045;-53
2023/07/06 10:02:41;;;;;;;2.13;1.70;;;30.00;60.70;;;;;;4988140;28;20498;-53
2023/07/06 10:05:33;;;;;;;4.38;1.88;;;30.20;60.00;;;;;;4970598;28;20113;-53
2023/07/06 10:08:11;;;;;;;2.72;1.60;;;30.90;60.60;;;;;;4987635;28;20026;-53
2023/07/06 10:10:58;;;;;;;2.58;1.35;;;30.70;59.20;;;;;;4951431;28;20072;-53
2023/07/06 10:13:27;;;;;;;2.97;1.48;;;31.00;58.30;;;;;;4951458;28;20027;-53
2023/07/06 10:16:24;;;;;;;3.45;1.27;;;31.70;57.60;;;;;;4968593;28;20034;-53
2023/07/06 10:18:51;;;;;;;2.95;1.35;;;32.40;58.50;;;;;;4977659;28;20421;-53
2023/07/06 10:21:20;;;;;;;2.85;1.65;;;32.40;55.60;;;;;;4987894;28;20337;-53
2023/07/06 10:24:12;;;;;;;3.50;1.63;;;33.30;55.30;;;;;;4987723;28;20029;-53
2023/07/06 10:26:53;;;;;;;3.35;1.48;;;33.00;56.80;;;;;;4970319;28;20030;-53
2023/07/06 10:29:37;;;;;;;2.55;1.30;;;33.40;54.20;;;;;;4987268;28;20038;-53
2023/07/06 10:32:07;;;;;;;3.45;1.88;;;33.50;52.80;;;;;;4987939;28;20512;-53
2023/07/06 10:34:53;;;;;;;2.72;1.65;;;33.70;53.10;;;;;;4987658;28;20026;-53
2023/07/06 10:37:20;;;;;;;2.05;1.10;;;33.70;52.80;;;;;;4987579;28;20026;-53
2023/07/06 10:39:46;;;;;;;1.83;1.60;;;34.50;51.90;;;;;;4987144;28;20034;-54
2023/07/06 10:42:26;;;;;;;1.95;1.30;;;33.00;53.10;;;;;;4987747;28;20382;-53
2023/07/06 10:45:02;;;;;;;5.13;1.55;;;32.50;53.10;;;;;;4970128;28;20023;-53
2023/07/06 10:47:43;;;;;;;5.15;1.70;;;33.50;54.00;;;;;;4986873;28;20427;-53
2023/07/06 10:50:08;;;;;;;3.22;1.48;;;34.00;51.30;;;;;;4987476;28;20045;-53
2023/07/06 10:52:42;;;;;;;2.83;1.70;;;33.80;51.60;;;;;;4987579;28;20066;-53
2023/07/06 10:55:25;;;;;;;2.25;1.50;;;32.30;52.00;;;;;;4987403;28;20372;-53
2023/07/06 10:57:53;;;;;;;2.10;1.30;;;32.10;54.30;;;;;;4969653;28;20503;-53
2023/07/06 11:00:28;;;;;;;2.28;1.45;;;32.70;55.20;;;;;;4969961;28;20038;-53
2023/07/06 11:02:55;;;;;;;4.35;1.40;;;31.70;52.60;;;;;;4967986;28;20027;-53
2023/07/06 11:05:28;;;;;;;2.40;1.20;;;30.80;54.60;;;;;;4968016;28;20023;-53
2023/07/06 11:08:14;;;;;;;2.35;1.63;;;29.80;55.20;;;;;;4967737;28;20088;-53
2023/07/06 11:10:44;;;;;;;3.47;1.40;;;29.60;56.10;;;;;;4974903;28;20041;-52
2023/07/06 11:13:12;;;;;;;5.07;1.50;;;30.30;56.40;;;;;;4987518;28;20057;-53
2023/07/06 11:15:51;;;;;;;3.92;1.42;;;31.00;58.50;;;;;;4969975;28;20404;-53
2023/07/06 11:18:37;;;;;;;2.00;1.30;;;31.70;57.10;;;;;;4969463;28;20511;-53
2023/07/06 11:21:31;;;;;;;2.42;1.50;;;32.20;52.30;;;;;;4986738;28;20054;-53
2023/07/06 11:24:02;;;;;;;6.60;1.42;;;32.90;52.10;;;;;;4967618;28;20110;-53
2023/07/06 11:26:50;;;;;;;3.10;1.50;;;33.30;52.10;;;;;;4967727;28;20034;-53
2023/07/06 11:29:20;;;;;;;3.67;1.58;;;33.90;52.30;;;;;;4967360;28;20027;-53
2023/07/06 11:31:53;;;;;;;3.75;1.30;;;34.00;50.20;;;;;;4974534;28;20057;-53
2023/07/06 11:34:30;;;;;;;3.78;1.70;;;34.00;50.00;;;;;;4987827;28;20034;-53
2023/07/06 11:37:08;;;;;;;2.83;1.30;;;33.90;50.20;;;;;;4986953;28;20023;-53
2023/07/06 11:40:06;;;;;;;2.30;1.50;;;34.00;50.50;;;;;;4987318;28;20079;-53
2023/07/06 11:43:02;;;;;;;3.55;1.38;;;33.80;50.30;;;;;;4986762;28;20048;-53
2023/07/06 11:45:58;;;;;;;2.30;1.25;;;33.50;50.10;;;;;;4979342;28;20141;-53
2023/07/06 11:48:26;;;;;;;4.68;1.40;;;33.80;48.80;;;;;;4967012;28;20034;-53
2023/07/06 11:50:54;;;;;;;3.40;1.30;;;33.10;50.50;;;;;;4967236;28;20110;-53
2023/07/06 11:53:32;;;;;;;3.42;1.30;;;32.80;50.60;;;;;;4981636;28;20040;-53
2023/07/06 11:56:08;;;;;;;2.17;1.20;;;33.10;49.40;;;;;;4949900;28;20030;-53
2023/07/06 11:58:45;;;;;;;4.15;1.17;;;32.90;47.90;;;;;;4968199;28;20050;-53
2023/07/06 12:01:31;;;;;;;2.78;1.08;;;31.70;48.70;;;;;;5071830;28;20477;-53
2023/07/06 12:03:59;;;;;;;2.25;1.20;;;30.50;50.80;;;;;;5006184;28;20031;-53
2023/07/06 12:06:24;;;;;;;2.80;1.25;;;29.30;52.30;;;;;;4989559;28;20109;-52
2023/07/06 12:08:50;;;;;;;5.75;1.60;;;28.50;55.70;;;;;;4989282;28;20105;-52
2023/07/06 12:11:22;;;;;;;3.65;1.50;;;27.80;55.20;;;;;;4971105;28;20110;-52
2023/07/06 12:13:53;;;;;;;3.30;1.40;;;27.20;58.60;;;;;;4988508;28;20037;-53
2023/07/06 12:16:21;;;;;;;1.75;1.38;;;26.90;57.50;;;;;;4989547;28;20036;-52
2023/07/06 12:18:55;;;;;;;5.95;1.70;;;26.10;57.90;;;;;;4988112;28;20395;-52
2023/07/06 12:21:30;;;;;;;2.58;1.80;;;25.90;59.40;;;;;;4987997;28;20455;-52
2023/07/06 12:24:00;;;;;;;3.83;2.38;;;25.40;58.90;;;;;;4988145;28;20026;-52
2023/07/06 12:26:29;;;;;;;1.83;1.38;;;25.30;62.60;;;;;;4987938;28;20023;-52
2023/07/06 12:28:56;;;;;;;3.95;1.92;;;25.50;61.00;;;;;;4986881;28;20037;-52
2023/07/06 12:31:23;;;;;;;5.53;1.70;;;26.30;62.30;;;;;;4987868;28;20057;-52
2023/07/06 12:33:56;;;;;;;4.15;1.50;;;26.20;61.60;;;;;;4988400;28;20511;-52
2023/07/06 12:36:26;;;;;;;3.50;1.80;;;26.50;60.60;;;;;;4989366;28;20038;-52
2023/07/06 12:38:54;;;;;;;3.53;1.45;;;26.90;57.30;;;;;;4988946;28;20101;-53
2023/07/06 12:41:20;;;;;;;4.82;1.65;;;26.70;61.50;;;;;;4989327;28;20355;-53
2023/07/06 12:43:49;;;;;;;3.67;1.52;;;26.70;58.90;;;;;;4989444;28;20077;-52
2023/07/06 12:46:17;;;;;;;2.58;1.50;;;26.60;57.90;;;;;;4989060;28;20128;-52
2023/07/06 12:48:46;;;;;;;4.50;1.65;;;26.20;58.90;;;;;;4988639;28;20394;-52
2023/07/06 12:51:19;;;;;;;2.70;1.58;;;26.20;59.50;;;;;;4989315;28;20026;-52
2023/07/06 12:53:47;;;;;;;3.25;1.60;;;26.20;58.90;;;;;;4975882;28;20109;-53
2023/07/06 12:56:15;;;;;;;2.45;1.55;;;26.20;59.80;;;;;;4977463;28;20034;-52
2023/07/06 12:58:46;;;;;;;2.35;1.25;;;26.10;61.20;;;;;;4979510;28;20027;-52
2023/07/06 13:01:19;;;;;;;2.05;1.40;;;26.20;60.40;;;;;;4961610;28;20026;-52